createdAt,value
2022-09-20T00:01:59.028Z,102221.06
2022-09-20T00:06:02.604Z,102223.31
2022-09-20T00:10:05.690Z,102216.41
2022-09-20T00:14:11.258Z,102208.25
2022-09-20T00:18:13.645Z,102218.97
2022-09-20T00:22:15.316Z,102217.97
2022-09-20T00:26:17.594Z,102219.66
2022-09-20T00:30:19.282Z,102223.31
2022-09-20T00:34:39.577Z,102233.19
2022-09-20T00:38:41.385Z,102231.63
2022-09-20T00:42:43.107Z,102217.84
2022-09-20T00:46:45.985Z,102219.66
2022-09-20T00:50:54.385Z,102215.16
2022-09-20T00:54:57.208Z,102232.91
2022-09-20T00:59:14.730Z,102222.19
2022-09-20T01:03:20.738Z,102211.47
2022-09-20T01:07:22.862Z,102217.56
2022-09-20T01:11:26.290Z,102223.75
2022-09-20T01:15:30.266Z,102207.81
2022-09-20T01:20:11.016Z,102215.56
2022-09-20T01:24:30.220Z,102219.66
2022-09-20T01:28:32.799Z,102220.38
2022-09-20T01:32:41.418Z,102212.19
2022-09-20T01:36:54.438Z,102208.66
2022-09-20T01:41:24.716Z,102210.66
2022-09-20T01:45:32.224Z,102207.97
2022-09-20T01:49:58.269Z,102204.56
2022-09-20T01:54:14.756Z,102203.28
2022-09-20T01:58:34.473Z,102205.13
2022-09-20T02:02:38.856Z,102206.69
2022-09-20T02:07:05.124Z,102219.94
2022-09-20T02:11:16.846Z,102218.25
2022-09-20T02:16:00.340Z,102214.00
2022-09-20T02:20:12.949Z,102204.44
2022-09-20T02:24:14.614Z,102199.53
2022-09-20T02:28:38.276Z,102197.97
2022-09-20T02:32:58.686Z,102186.53
2022-09-20T02:37:35.318Z,102192.03
2022-09-20T02:41:59.189Z,102195.72
2022-09-20T02:46:21.918Z,102196.97
2022-09-20T02:50:35.365Z,102193.72
2022-09-20T02:55:06.370Z,102199.63
2022-09-20T02:59:42.975Z,102195.25
2022-09-20T03:04:05.714Z,102191.72
2022-09-20T03:08:20.722Z,102195.94
2022-09-20T03:12:37.273Z,102200.19
2022-09-20T03:17:08.566Z,102201.16
2022-09-20T03:21:29.120Z,102203.00
2022-09-20T03:25:42.545Z,102203.00
2022-09-20T03:29:57.030Z,102203.28
2022-09-20T03:34:13.501Z,102206.91
2022-09-20T03:38:15.129Z,102206.22
2022-09-20T03:42:16.806Z,102207.34
2022-09-20T03:46:26.651Z,102207.50
2022-09-20T03:51:05.533Z,102218.06
2022-09-20T03:55:16.132Z,102219.75
2022-09-20T03:59:20.453Z,102214.38
2022-09-20T04:03:49.472Z,102225.09
2022-09-20T04:08:10.333Z,102223.56
2022-09-20T04:12:24.432Z,102218.19
2022-09-20T04:16:30.627Z,102219.03
2022-09-20T04:20:46.571Z,102210.19
2022-09-20T04:25:02.681Z,102218.19
2022-09-20T04:29:42.993Z,102218.19
2022-09-20T04:33:50.264Z,102217.06
2022-09-20T04:37:53.571Z,102219.63
2022-09-20T04:42:23.241Z,102218.63
2022-09-20T04:47:02.883Z,102225.81
2022-09-20T04:51:22.644Z,102225.97
2022-09-20T04:55:53.074Z,102221.56
2022-09-20T05:00:16.282Z,102229.47
2022-09-20T05:04:27.067Z,102227.66
2022-09-20T05:08:51.191Z,102239.34
2022-09-20T05:13:08.457Z,102232.16
2022-09-20T05:17:31.549Z,102226.94
2022-09-20T05:21:50.173Z,102229.59
2022-09-20T05:26:03.879Z,102228.63
2022-09-20T05:30:16.458Z,102225.81
2022-09-20T05:34:21.690Z,102238.34
2022-09-20T05:38:48.306Z,102241.31
2022-09-20T05:43:12.117Z,102231.84
2022-09-20T05:47:41.719Z,102239.88
2022-09-20T05:51:52.440Z,102244.41
2022-09-20T05:56:15.744Z,102244.97
2022-09-20T06:00:20.616Z,102250.91
2022-09-20T06:04:26.968Z,102254.16
2022-09-20T06:08:38.014Z,102256.56
2022-09-20T06:12:58.338Z,102260.91
2022-09-20T06:17:16.625Z,102266.69
2022-09-20T06:21:50.715Z,102268.13
2022-09-20T06:26:02.283Z,102266.88
2022-09-20T06:30:29.092Z,102269.00
2022-09-20T06:34:31.569Z,102271.13
2022-09-20T06:39:18.014Z,102266.19
2022-09-20T06:43:19.716Z,102258.28
2022-09-20T06:47:23.393Z,102259.41
2022-09-20T06:51:27.365Z,102267.59
2022-09-20T06:55:32.625Z,102266.03
2022-09-20T06:59:34.290Z,102264.47
2022-09-20T07:03:36.025Z,102264.47
2022-09-20T07:07:37.677Z,102276.88
2022-09-20T07:11:39.604Z,102276.00
2022-09-20T07:15:41.472Z,102272.84
2022-09-20T07:19:43.186Z,102274.53
2022-09-20T07:23:51.442Z,102283.53
2022-09-20T07:27:53.179Z,102288.03
2022-09-20T07:31:55.816Z,102295.91
2022-09-20T07:35:57.563Z,102298.72
2022-09-20T07:39:59.640Z,102301.78
2022-09-20T07:44:20.963Z,102309.25
2022-09-20T07:48:25.017Z,102311.75
2022-09-20T07:52:26.701Z,102313.38
2022-09-20T07:56:28.393Z,102324.22
2022-09-20T08:00:30.068Z,102328.13
2022-09-20T08:04:32.114Z,102325.69
2022-09-20T08:08:38.671Z,102328.75
2022-09-20T08:17:03.153Z,102349.47
2022-09-20T08:21:06.382Z,102345.00
2022-09-20T08:25:08.465Z,102354.84
2022-09-20T08:29:11.675Z,102349.19
2022-09-20T08:33:13.373Z,102356.28
2022-09-20T08:37:15.082Z,102352.19
2022-09-20T08:41:39.123Z,102353.19
2022-09-20T08:45:41.518Z,102355.41
2022-09-20T08:49:46.024Z,102359.94
2022-09-20T08:53:55.872Z,102356.81
2022-09-20T08:57:58.981Z,102364.56
2022-09-20T09:02:01.342Z,102355.34
2022-09-20T09:06:06.487Z,102362.88
2022-09-20T09:10:10.610Z,102363.41
2022-09-20T09:14:41.421Z,102369.03
2022-09-20T09:18:45.623Z,102363.19
2022-09-20T09:22:49.103Z,102372.19
2022-09-20T09:26:51.221Z,102371.41
2022-09-20T09:30:52.969Z,102385.50
2022-09-20T09:34:55.393Z,102389.19
2022-09-20T09:39:34.293Z,102381.44
2022-09-20T09:43:37.733Z,102389.06
2022-09-20T09:47:39.594Z,102395.59
2022-09-20T09:52:02.464Z,102396.47
2022-09-20T09:56:49.477Z,102405.38
2022-09-20T10:00:54.061Z,102399.69
2022-09-20T10:05:04.293Z,102413.25
2022-09-20T10:09:33.677Z,102403.44
2022-09-20T10:13:58.289Z,102391.28
2022-09-20T10:18:17.284Z,102387.31
2022-09-20T10:22:34.610Z,102393.47
2022-09-20T10:26:58.188Z,102380.94
2022-09-20T10:31:19.338Z,102388.22
2022-09-20T10:35:29.413Z,102381.13
2022-09-20T10:39:39.743Z,102380.41
2022-09-20T10:44:05.730Z,102392.72
2022-09-20T10:48:24.753Z,102397.56
2022-09-20T10:52:49.522Z,102390.56
2022-09-20T10:56:59.724Z,102387.88
2022-09-20T11:01:22.817Z,102390.22
2022-09-20T11:05:36.582Z,102393.38
2022-09-20T11:09:42.847Z,102388.00
2022-09-20T11:13:55.958Z,102397.31
2022-09-20T11:18:11.845Z,102387.69
2022-09-20T11:22:52.706Z,102394.28
2022-09-20T11:27:00.928Z,102384.41
2022-09-20T11:31:07.063Z,102391.56
2022-09-20T11:35:11.560Z,102382.97
2022-09-20T11:39:22.382Z,102394.91
2022-09-20T11:43:31.324Z,102392.31
2022-09-20T11:47:54.484Z,102390.94
2022-09-20T11:52:10.777Z,102391.38
2022-09-20T11:56:21.313Z,102404.78
2022-09-20T12:00:31.076Z,102416.31
2022-09-20T12:04:36.272Z,102407.47
2022-09-20T12:08:41.850Z,102414.66
2022-09-20T12:12:49.944Z,102412.72
2022-09-20T12:16:51.643Z,102420.56
2022-09-20T12:20:57.259Z,102409.94
2022-09-20T12:25:38.479Z,102413.03
2022-09-20T12:29:47.622Z,102409.03
2022-09-20T12:34:10.916Z,102407.84
2022-09-20T12:38:21.337Z,102398.81
2022-09-20T12:42:28.214Z,102393.13
2022-09-20T12:46:38.082Z,102385.66
2022-09-20T12:50:58.430Z,102387.97
2022-09-20T12:55:04.726Z,102386.28
2022-09-20T12:59:31.146Z,102373.59
2022-09-20T13:03:36.449Z,102380.81
2022-09-20T13:07:52.193Z,102382.84
2022-09-20T13:12:01.997Z,102377.88
2022-09-20T13:16:06.555Z,102386.28
2022-09-20T13:20:19.290Z,102391.13
2022-09-20T13:24:21.120Z,102383.56
2022-09-20T13:28:38.410Z,102385.31
2022-09-20T13:32:42.327Z,102385.31
2022-09-20T13:36:44.771Z,102391.03
2022-09-20T13:40:50.257Z,102384.72
2022-09-20T13:44:52.259Z,102389.75
2022-09-20T13:49:21.397Z,102388.06
2022-09-20T13:53:41.630Z,102388.59
2022-09-20T13:57:44.747Z,102389.63
2022-09-20T14:01:51.161Z,102380.22
2022-09-20T14:06:08.118Z,102379.19
2022-09-20T14:10:28.329Z,102387.28
2022-09-20T14:14:31.679Z,102374.81
2022-09-20T14:18:35.496Z,102379.53
2022-09-20T14:22:37.220Z,102378.91
2022-09-20T14:26:40.849Z,102380.56
2022-09-20T14:30:43.359Z,102376.19
2022-09-20T14:35:00.282Z,102375.03
2022-09-20T14:39:04.413Z,102377.91
2022-09-20T14:43:07.453Z,102379.94
2022-09-20T14:47:16.014Z,102374.22
2022-09-20T14:51:25.326Z,102373.91
2022-09-20T14:55:28.667Z,102369.50
2022-09-20T14:59:41.846Z,102373.53
2022-09-20T15:03:43.535Z,102374.53
2022-09-20T15:07:45.596Z,102375.25
2022-09-20T15:11:47.437Z,102379.34
2022-09-20T15:15:52.265Z,102389.03
2022-09-20T15:19:53.958Z,102385.13
2022-09-20T15:23:55.689Z,102371.72
2022-09-20T15:27:57.909Z,102382.69
2022-09-20T15:31:59.844Z,102370.41
2022-09-20T15:36:02.837Z,102370.34
2022-09-20T15:40:06.019Z,102372.88
2022-09-20T15:44:08.330Z,102362.09
2022-09-20T15:48:10.211Z,102368.31
2022-09-20T15:52:13.261Z,102370.88
2022-09-20T15:56:51.809Z,102366.94
2022-09-20T16:00:53.571Z,102365.97
2022-09-20T16:04:55.955Z,102368.66
2022-09-20T16:08:57.637Z,102371.69
2022-09-20T16:12:59.323Z,102365.28
2022-09-20T16:17:01.047Z,102368.97
2022-09-20T16:21:08.120Z,102370.66
2022-09-20T16:25:09.938Z,102375.31
2022-09-20T16:29:11.819Z,102383.41
2022-09-20T16:33:13.501Z,102383.41
2022-09-20T16:37:16.834Z,102386.97
2022-09-20T16:41:18.600Z,102385.75
2022-09-20T16:45:20.293Z,102393.09
2022-09-20T16:49:22.179Z,102396.75
2022-09-20T16:53:26.438Z,102399.53
2022-09-20T16:57:28.957Z,102410.25
2022-09-20T17:01:32.095Z,102413.75
2022-09-20T17:05:33.934Z,102410.16
2022-09-20T17:09:35.709Z,102420.16
2022-09-20T17:13:41.584Z,102418.53
2022-09-20T17:17:43.249Z,102423.03
2022-09-20T17:21:50.189Z,102420.25
2022-09-20T17:26:03.684Z,102430.91
2022-09-20T17:30:09.878Z,102435.22
2022-09-20T17:34:15.266Z,102434.97
2022-09-20T17:38:16.962Z,102438.41
2022-09-20T17:42:19.844Z,102439.84
2022-09-20T17:46:26.161Z,102440.44
2022-09-20T17:50:27.835Z,102443.75
2022-09-20T17:54:29.574Z,102447.03
2022-09-20T17:58:34.965Z,102445.94
2022-09-20T18:02:36.813Z,102442.00
2022-09-20T18:06:44.987Z,102451.38
2022-09-20T18:10:58.959Z,102445.72
2022-09-20T18:15:00.940Z,102453.69
2022-09-20T18:19:03.707Z,102460.75
2022-09-20T18:23:05.435Z,102463.06
2022-09-20T18:27:07.145Z,102467.88
2022-09-20T18:31:09.554Z,102474.53
2022-09-20T18:35:11.344Z,102479.50
2022-09-20T18:39:14.196Z,102477.66
2022-09-20T18:43:15.864Z,102479.78
2022-09-20T18:47:17.497Z,102485.44
2022-09-20T18:51:20.949Z,102490.41
2022-09-20T18:55:24.549Z,102494.81
2022-09-20T18:59:27.662Z,102493.91
2022-09-20T19:03:55.731Z,102491.09
2022-09-20T19:08:11.294Z,102498.72
2022-09-20T19:12:43.971Z,102499.84
2022-09-20T19:16:54.974Z,102500.44
2022-09-20T19:21:14.131Z,102509.44
2022-09-20T19:25:30.764Z,102504.63
2022-09-20T19:29:33.362Z,102511.72
2022-09-20T19:33:35.790Z,102512.28
2022-09-20T19:37:57.026Z,102518.34
2022-09-20T19:42:30.002Z,102514.53
2022-09-20T19:46:43.900Z,102535.72
2022-09-20T19:50:49.935Z,102542.50
2022-09-20T19:54:52.132Z,102544.78
2022-09-20T19:58:56.155Z,102553.56
2022-09-20T20:02:58.483Z,102555.09
2022-09-20T20:07:16.734Z,102556.50
2022-09-20T20:11:32.480Z,102563.44
2022-09-20T20:15:52.278Z,102549.03
2022-09-20T20:20:15.096Z,102552.69
2022-09-20T20:24:35.165Z,102556.38
2022-09-20T20:28:37.604Z,102563.72
2022-09-20T20:32:40.561Z,102563.72
2022-09-20T20:36:43.993Z,102567.25
2022-09-20T20:40:45.688Z,102563.72
2022-09-20T20:44:47.894Z,102572.50
2022-09-20T20:48:49.917Z,102576.13
2022-09-20T20:52:53.669Z,102571.66
2022-09-20T20:56:55.362Z,102571.66
2022-09-20T21:01:14.492Z,102574.44
2022-09-20T21:05:16.292Z,102575.28
2022-09-20T21:09:17.968Z,102586.19
2022-09-20T21:13:19.621Z,102587.31
2022-09-20T21:17:21.498Z,102576.72
2022-09-20T21:21:35.352Z,102584.31
2022-09-20T21:25:37.016Z,102584.03
2022-09-20T21:29:38.768Z,102584.31
2022-09-20T21:33:42.436Z,102578.38
2022-09-20T21:37:44.999Z,102584.00
2022-09-20T21:41:46.895Z,102585.13
2022-09-20T21:45:48.603Z,102576.38
2022-09-20T21:49:50.304Z,102567.34
2022-09-20T21:53:54.315Z,102578.66
2022-09-20T21:57:55.960Z,102584.84
2022-09-20T22:01:58.579Z,102585.44
2022-09-20T22:06:10.719Z,102587.13
2022-09-20T22:10:12.422Z,102595.03
2022-09-20T22:14:16.339Z,102589.66
2022-09-20T22:18:18.165Z,102596.72
2022-09-20T22:22:20.015Z,102593.91
2022-09-20T22:26:22.950Z,102595.63
2022-09-20T22:30:26.022Z,102593.91
2022-09-20T22:34:27.905Z,102595.88
2022-09-20T22:38:30.902Z,102599.56
2022-09-20T22:42:32.942Z,102602.38
2022-09-20T22:46:35.425Z,102598.84
2022-09-20T22:50:37.294Z,102592.47
2022-09-20T22:54:39.199Z,102594.19
2022-09-20T22:58:46.536Z,102591.63
2022-09-20T23:02:48.445Z,102599.69
2022-09-20T23:06:55.230Z,102604.94
2022-09-20T23:11:01.900Z,102606.63
2022-09-20T23:15:04.100Z,102608.56
2022-09-20T23:19:07.666Z,102605.47
2022-09-20T23:23:09.963Z,102599.53
2022-09-20T23:27:11.909Z,102609.41
2022-09-20T23:31:16.654Z,102609.41
2022-09-20T23:35:19.094Z,102605.75
2022-09-20T23:39:21.090Z,102612.09
2022-09-20T23:43:22.977Z,102611.13
2022-09-20T23:47:24.889Z,102611.13
2022-09-20T23:51:28.651Z,102613.09
2022-09-20T23:55:31.080Z,102612.38
2022-09-20T23:59:33.382Z,102608.84
